Date,TemperatureHighF,TemperatureAvgF,TemperatureLowF,DewpointHighF,DewpointAvgF,DewpointLowF,HumidityHigh,HumidityAvg,HumidityLow,PressureMaxIn,PressureMinIn,WindSpeedMaxMPH,WindSpeedAvgMPH,GustSpeedMaxMPH,PrecipitationSumIn
2013-9-1,96,70,48,36,31,27,50,27,11,29.99,29.85,5,1,5,0.00
2013-9-2,87,69,53,36,31,26,41,25,13,29.96,29.88,6,0,6,0.00
2013-9-3,82,68,58,46,39,33,47,35,20,30.05,29.96,8,0,8,0.00
2013-9-4,96,72,53,50,38,28,65,34,11,30.08,29.96,5,0,5,0.00
2013-9-5,86,67,58,54,44,36,73,46,21,30.05,29.96,9,1,9,0.08
2013-9-6,83,67,52,61,46,36,78,52,22,30.02,29.93,6,0,6,0.00
2013-9-7,87,68,49,49,36,27,68,36,13,30.08,29.91,6,0,6,0.00
2013-9-8,76,60,47,42,33,25,63,39,22,29.99,29.93,10,0,10,0.00
2013-9-9,85,63,51,45,35,29,62,37,16,30.02,29.96,9,1,9,0.00
2013-9-10,90,65,45,43,34,27,67,38,13,30.08,29.96,6,1,6,0.00
2013-9-11,91,79,59,39,31,22,42,18,12,30.14,30.02,5,1,8,0.00
2013-9-12,93,70,49,41,33,28,52,29,12,30.11,29.93,10,1,10,0.00
2013-9-13,94,73,56,43,36,29,49,29,11,29.93,29.79,15,2,15,0.00
2013-9-14,88,69,55,42,35,25,53,32,14,29.99,29.88,8,1,8,0.00
2013-9-15,92,67,48,46,36,30,64,36,14,29.99,29.82,15,1,15,0.00
2013-9-16,92,69,53,57,39,23,73,40,12,29.91,29.73,13,1,13,0.00
2013-9-17,68,55,45,46,38,30,69,54,35,29.85,29.61,9,0,9,0.00
2013-9-18,69,56,47,32,26,21,47,32,22,30.05,29.73,10,1,10,0.00
2013-9-19,76,55,38,32,25,18,60,35,15,30.14,29.99,8,1,8,0.00
2013-9-20,87,56,34,35,24,17,64,35,12,30.02,29.70,8,0,8,0.00
2013-9-21,75,56,39,29,23,19,47,30,15,29.73,29.64,6,0,7,0.00
2013-9-22,67,54,48,49,38,29,75,58,35,29.73,29.67,7,1,7,0.04
2013-9-23,67,52,42,48,31,22,74,48,20,29.93,29.73,6,1,10,0.04
2013-9-24,49,45,41,42,36,25,76,69,52,29.93,29.76,6,0,6,0.20
2013-9-25,54,46,43,40,36,27,80,71,39,29.76,29.67,5,0,5,0.24
2013-9-26,54,46,41,36,26,18,77,49,27,29.96,29.76,7,0,7,0.20
2013-9-27,58,51,42,31,23,19,62,34,25,29.99,29.91,11,3,11,0.08
2013-9-28,66,53,46,39,29,23,63,40,26,29.91,29.76,15,5,15,0.08
2013-9-29,56,48,43,38,32,29,71,55,38,29.79,29.58,14,4,14,0.20
2013-9-30,62,48,39,36,26,17,68,46,21,29.91,29.49,37,3,37,0.24